Terminal Aerodrome Forecast
Issued by NWS Duluth, MN

Home | Current Version | Previous Version | Text Only | Print | Product List | Glossary On
Versions: 1 2 3 4 5 6 7 8 9 10 11 12 13 14 15 16 17 18 19 20 21 22 23 24 25 26 27
000
FTUS43 KDLH 312333
TAFDLH
TAF
KDLH 312333Z 0100/0124 22013G21KT P6SM BKN100
     FM010100 22011KT P6SM SCT040 BKN150
     FM010600 24006KT 5SM BR BKN050 BKN100
     FM011700 26009G15KT P6SM FEW040 SCT150=

USA.gov is the U.S. government's official web portal to all federal, state and local government web resources and services.